YBCG/OOL METAR and TAF weather

Enter ICAO airport designator
Station Type Date Time Source
YBCG METAR 2022/12/10 02:00 UTC NOAA

YBCG 100200Z AUTO 06011KT 9999 // SCT025 BKN032 BKN078 25/17 Q1016


Station Type Date Time Source
YBCG Decoded METAR 2022/12/10 02:00 UTC NOAA

Coolangatta Airport Aws, Australia (YBCG) 28-10S 153-30E 6M
Dec 09, 2022 - 09:00 PM EST / 2022.12.10 0200 UTC
Wind: from the ENE (060 degrees) at 13 MPH (11 KT):0
Visibility: greater than 7 mile(s):0
Sky conditions: mostly cloudy
Temperature: 77 F (25 C)
Dew Point: 62 F (17 C)
Relative Humidity: 61%
Pressure (altimeter): 30.00 in. Hg (1016 hPa)
ob: YBCG 100200Z AUTO 06011KT 9999 // SCT025 BKN032 BKN078 25/17 Q1016
cycle: 2

Station Type Date Time Source
YBCG TAF 2022/12/10 02:00 UTC NOAA

TAF
AMD YBCG 100208Z 1002/1100 06011KT 9999 -SHRA BKN030
FM101200 05008KT 9999 NSW BKN025 INTER 1002/1006 4000 SHRA BKN015

Example: see airport list